sensor_id;sensor_type;location;lat;lon;timestamp;temperature;humidity
19039;DHT22;9652;49.014;12.052;2023-04-21T00:00:59;11.70;66.60
19039;DHT22;9652;49.014;12.052;2023-04-21T00:03:27;11.70;66.70
19039;DHT22;9652;49.014;12.052;2023-04-21T00:05:55;11.70;66.80
19039;DHT22;9652;49.014;12.052;2023-04-21T00:08:23;11.60;66.80
19039;DHT22;9652;49.014;12.052;2023-04-21T00:10:53;11.70;67.00
19039;DHT22;9652;49.014;12.052;2023-04-21T00:13:20;11.60;67.10
19039;DHT22;9652;49.014;12.052;2023-04-21T00:15:47;11.60;67.00
19039;DHT22;9652;49.014;12.052;2023-04-21T00:18:14;11.60;67.00
19039;DHT22;9652;49.014;12.052;2023-04-21T00:20:42;11.60;67.10
19039;DHT22;9652;49.014;12.052;2023-04-21T00:23:10;11.50;67.10
19039;DHT22;9652;49.014;12.052;2023-04-21T00:25:37;11.50;67.10
19039;DHT22;9652;49.014;12.052;2023-04-21T00:28:05;11.50;67.20
19039;DHT22;9652;49.014;12.052;2023-04-21T00:30:36;11.40;67.20
19039;DHT22;9652;49.014;12.052;2023-04-21T00:33:03;11.40;67.20
19039;DHT22;9652;49.014;12.052;2023-04-21T00:35:30;11.40;67.20
19039;DHT22;9652;49.014;12.052;2023-04-21T00:37:58;11.40;67.20
19039;DHT22;9652;49.014;12.052;2023-04-21T00:40:25;11.40;67.20
19039;DHT22;9652;49.014;12.052;2023-04-21T00:42:53;11.30;67.20
19039;DHT22;9652;49.014;12.052;2023-04-21T00:45:21;11.30;67.20
19039;DHT22;9652;49.014;12.052;2023-04-21T00:47:48;11.30;67.20
19039;DHT22;9652;49.014;12.052;2023-04-21T00:50:17;11.30;67.30
19039;DHT22;9652;49.014;12.052;2023-04-21T00:52:44;11.20;67.20
19039;DHT22;9652;49.014;12.052;2023-04-21T00:55:12;11.20;67.20
19039;DHT22;9652;49.014;12.052;2023-04-21T00:57:41;11.20;67.30
19039;DHT22;9652;49.014;12.052;2023-04-21T01:00:10;11.20;67.30
19039;DHT22;9652;49.014;12.052;2023-04-21T01:02:39;11.10;67.30
19039;DHT22;9652;49.014;12.052;2023-04-21T01:05:07;11.10;67.60
19039;DHT22;9652;49.014;12.052;2023-04-21T01:07:37;11.10;67.50
19039;DHT22;9652;49.014;12.052;2023-04-21T01:10:06;11.10;67.70
19039;DHT22;9652;49.014;12.052;2023-04-21T01:12:41;11.10;67.70
19039;DHT22;9652;49.014;12.052;2023-04-21T01:15:10;11.00;68.10
19039;DHT22;9652;49.014;12.052;2023-04-21T01:17:39;11.00;67.80
19039;DHT22;9652;49.014;12.052;2023-04-21T01:20:09;11.00;67.90
19039;DHT22;9652;49.014;12.052;2023-04-21T01:22:41;11.00;68.00
19039;DHT22;9652;49.014;12.052;2023-04-21T01:25:09;11.00;68.10
19039;DHT22;9652;49.014;12.052;2023-04-21T01:27:36;11.00;68.00
19039;DHT22;9652;49.014;12.052;2023-04-21T01:30:05;11.00;68.10
19039;DHT22;9652;49.014;12.052;2023-04-21T01:32:34;11.00;68.20
19039;DHT22;9652;49.014;12.052;2023-04-21T01:35:02;11.00;68.20
19039;DHT22;9652;49.014;12.052;2023-04-21T01:37:32;11.00;68.20
19039;DHT22;9652;49.014;12.052;2023-04-21T01:40:03;10.90;68.30
19039;DHT22;9652;49.014;12.052;2023-04-21T01:42:34;10.90;68.40
19039;DHT22;9652;49.014;12.052;2023-04-21T01:45:06;10.90;68.30
19039;DHT22;9652;49.014;12.052;2023-04-21T01:47:35;10.90;68.30
19039;DHT22;9652;49.014;12.052;2023-04-21T01:50:03;10.90;68.20
19039;DHT22;9652;49.014;12.052;2023-04-21T01:52:30;10.90;68.30
19039;DHT22;9652;49.014;12.052;2023-04-21T01:55:00;10.90;68.30
19039;DHT22;9652;49.014;12.052;2023-04-21T01:57:27;10.80;68.30
19039;DHT22;9652;49.014;12.052;2023-04-21T01:59:55;10.80;68.40
19039;DHT22;9652;49.014;12.052;2023-04-21T02:02:22;10.80;68.40
19039;DHT22;9652;49.014;12.052;2023-04-21T02:04:50;10.80;68.40
19039;DHT22;9652;49.014;12.052;2023-04-21T02:07:17;10.70;68.40
19039;DHT22;9652;49.014;12.052;2023-04-21T02:09:44;10.70;68.30
19039;DHT22;9652;49.014;12.052;2023-04-21T02:12:12;10.70;68.40
19039;DHT22;9652;49.014;12.052;2023-04-21T02:14:41;10.70;68.50
19039;DHT22;9652;49.014;12.052;2023-04-21T02:17:08;10.70;68.40
19039;DHT22;9652;49.014;12.052;2023-04-21T02:19:35;10.70;68.50
19039;DHT22;9652;49.014;12.052;2023-04-21T02:22:03;10.60;68.50
19039;DHT22;9652;49.014;12.052;2023-04-21T02:24:31;10.60;68.50
19039;DHT22;9652;49.014;12.052;2023-04-21T02:26:58;10.60;68.50
19039;DHT22;9652;49.014;12.052;2023-04-21T02:29:28;10.60;68.50
19039;DHT22;9652;49.014;12.052;2023-04-21T02:31:56;10.60;68.50
19039;DHT22;9652;49.014;12.052;2023-04-21T02:34:23;10.50;68.40
19039;DHT22;9652;49.014;12.052;2023-04-21T02:36:50;10.50;68.40
19039;DHT22;9652;49.014;12.052;2023-04-21T02:39:18;10.50;68.40
19039;DHT22;9652;49.014;12.052;2023-04-21T02:41:45;10.50;69.10
19039;DHT22;9652;49.014;12.052;2023-04-21T02:44:12;10.50;68.30
19039;DHT22;9652;49.014;12.052;2023-04-21T02:46:41;10.50;68.30
19039;DHT22;9652;49.014;12.052;2023-04-21T02:49:09;10.50;68.30
19039;DHT22;9652;49.014;12.052;2023-04-21T02:51:36;10.40;68.30
19039;DHT22;9652;49.014;12.052;2023-04-21T02:54:03;10.40;68.30
19039;DHT22;9652;49.014;12.052;2023-04-21T02:56:30;10.40;68.40
19039;DHT22;9652;49.014;12.052;2023-04-21T02:58:59;10.30;68.30
19039;DHT22;9652;49.014;12.052;2023-04-21T03:01:26;10.30;68.40
19039;DHT22;9652;49.014;12.052;2023-04-21T03:03:54;10.30;68.40
19039;DHT22;9652;49.014;12.052;2023-04-21T03:06:21;10.30;68.40
19039;DHT22;9652;49.014;12.052;2023-04-21T03:08:48;10.20;68.40
19039;DHT22;9652;49.014;12.052;2023-04-21T03:11:16;10.20;68.50
19039;DHT22;9652;49.014;12.052;2023-04-21T03:13:44;10.20;68.40
19039;DHT22;9652;49.014;12.052;2023-04-21T03:16:11;10.20;68.40
19039;DHT22;9652;49.014;12.052;2023-04-21T03:18:38;10.20;68.60
19039;DHT22;9652;49.014;12.052;2023-04-21T03:21:07;10.10;68.60
19039;DHT22;9652;49.014;12.052;2023-04-21T03:23:34;10.10;68.80
19039;DHT22;9652;49.014;12.052;2023-04-21T03:26:05;10.10;68.70
19039;DHT22;9652;49.014;12.052;2023-04-21T03:28:33;10.00;68.90
19039;DHT22;9652;49.014;12.052;2023-04-21T03:31:02;10.00;68.80
19039;DHT22;9652;49.014;12.052;2023-04-21T03:33:29;10.00;68.80
19039;DHT22;9652;49.014;12.052;2023-04-21T03:35:56;10.00;68.90
19039;DHT22;9652;49.014;12.052;2023-04-21T03:38:27;10.00;68.90
19039;DHT22;9652;49.014;12.052;2023-04-21T03:40:54;10.00;69.10
19039;DHT22;9652;49.014;12.052;2023-04-21T03:43:21;10.00;69.10
19039;DHT22;9652;49.014;12.052;2023-04-21T03:45:48;10.00;69.20
19039;DHT22;9652;49.014;12.052;2023-04-21T03:48:18;10.00;69.30
19039;DHT22;9652;49.014;12.052;2023-04-21T03:50:45;9.90;69.30
19039;DHT22;9652;49.014;12.052;2023-04-21T03:53:12;9.90;69.30
19039;DHT22;9652;49.014;12.052;2023-04-21T03:55:40;9.80;69.30
19039;DHT22;9652;49.014;12.052;2023-04-21T03:58:08;9.90;69.30
19039;DHT22;9652;49.014;12.052;2023-04-21T04:00:35;9.90;69.30
19039;DHT22;9652;49.014;12.052;2023-04-21T04:03:03;9.90;69.40
19039;DHT22;9652;49.014;12.052;2023-04-21T04:05:30;9.90;69.40
19039;DHT22;9652;49.014;12.052;2023-04-21T04:07:57;9.90;69.50
19039;DHT22;9652;49.014;12.052;2023-04-21T04:10:24;9.90;69.50
19039;DHT22;9652;49.014;12.052;2023-04-21T04:12:52;9.80;69.50
19039;DHT22;9652;49.014;12.052;2023-04-21T04:15:19;9.90;69.60
19039;DHT22;9652;49.014;12.052;2023-04-21T04:17:46;9.90;69.60
19039;DHT22;9652;49.014;12.052;2023-04-21T04:20:14;9.90;69.60
19039;DHT22;9652;49.014;12.052;2023-04-21T04:22:41;9.90;69.80
19039;DHT22;9652;49.014;12.052;2023-04-21T04:25:08;9.90;69.80
19039;DHT22;9652;49.014;12.052;2023-04-21T04:27:35;9.90;69.90
19039;DHT22;9652;49.014;12.052;2023-04-21T04:30:04;9.90;70.00
19039;DHT22;9652;49.014;12.052;2023-04-21T04:32:32;9.90;70.20
19039;DHT22;9652;49.014;12.052;2023-04-21T04:34:59;9.90;70.30
19039;DHT22;9652;49.014;12.052;2023-04-21T04:37:27;9.90;70.30
19039;DHT22;9652;49.014;12.052;2023-04-21T04:39:54;9.90;70.30
19039;DHT22;9652;49.014;12.052;2023-04-21T04:42:21;10.00;70.50
19039;DHT22;9652;49.014;12.052;2023-04-21T04:44:52;10.00;70.60
19039;DHT22;9652;49.014;12.052;2023-04-21T04:47:20;10.00;70.60
19039;DHT22;9652;49.014;12.052;2023-04-21T04:49:47;10.00;70.60
19039;DHT22;9652;49.014;12.052;2023-04-21T04:52:15;10.10;70.60
19039;DHT22;9652;49.014;12.052;2023-04-21T04:54:42;10.10;70.50
19039;DHT22;9652;49.014;12.052;2023-04-21T04:57:09;10.10;70.50
19039;DHT22;9652;49.014;12.052;2023-04-21T04:59:36;10.20;70.50
19039;DHT22;9652;49.014;12.052;2023-04-21T05:02:03;10.20;70.50
19039;DHT22;9652;49.014;12.052;2023-04-21T05:04:32;10.10;70.30
19039;DHT22;9652;49.014;12.052;2023-04-21T05:07:00;10.20;70.40
19039;DHT22;9652;49.014;12.052;2023-04-21T05:09:27;10.20;70.30
19039;DHT22;9652;49.014;12.052;2023-04-21T05:11:54;10.20;70.30
19039;DHT22;9652;49.014;12.052;2023-04-21T05:14:21;10.20;70.30
19039;DHT22;9652;49.014;12.052;2023-04-21T05:16:48;10.20;70.30
19039;DHT22;9652;49.014;12.052;2023-04-21T05:19:15;10.10;70.20
19039;DHT22;9652;49.014;12.052;2023-04-21T05:21:44;10.30;70.40
19039;DHT22;9652;49.014;12.052;2023-04-21T05:24:11;10.20;70.40
19039;DHT22;9652;49.014;12.052;2023-04-21T05:26:38;10.20;70.40
19039;DHT22;9652;49.014;12.052;2023-04-21T05:29:05;10.30;70.50
19039;DHT22;9652;49.014;12.052;2023-04-21T05:31:32;10.30;70.70
19039;DHT22;9652;49.014;12.052;2023-04-21T05:33:59;10.30;70.90
19039;DHT22;9652;49.014;12.052;2023-04-21T05:36:26;10.40;71.00
19039;DHT22;9652;49.014;12.052;2023-04-21T05:38:56;10.40;71.20
19039;DHT22;9652;49.014;12.052;2023-04-21T05:41:23;10.50;71.40
19039;DHT22;9652;49.014;12.052;2023-04-21T05:43:50;10.50;71.40
19039;DHT22;9652;49.014;12.052;2023-04-21T05:46:17;10.60;71.50
19039;DHT22;9652;49.014;12.052;2023-04-21T05:48:45;10.70;71.60
19039;DHT22;9652;49.014;12.052;2023-04-21T05:51:13;10.70;71.80
19039;DHT22;9652;49.014;12.052;2023-04-21T05:53:42;10.80;71.90
19039;DHT22;9652;49.014;12.052;2023-04-21T05:56:12;10.90;72.10
19039;DHT22;9652;49.014;12.052;2023-04-21T05:58:39;11.00;72.20
19039;DHT22;9652;49.014;12.052;2023-04-21T06:01:07;11.10;72.10
19039;DHT22;9652;49.014;12.052;2023-04-21T06:03:34;11.20;72.10
19039;DHT22;9652;49.014;12.052;2023-04-21T06:06:03;11.30;72.00
19039;DHT22;9652;49.014;12.052;2023-04-21T06:08:31;11.40;72.00
19039;DHT22;9652;49.014;12.052;2023-04-21T06:10:58;11.50;71.80
19039;DHT22;9652;49.014;12.052;2023-04-21T06:13:27;11.70;71.90
19039;DHT22;9652;49.014;12.052;2023-04-21T06:15:54;11.80;72.00
19039;DHT22;9652;49.014;12.052;2023-04-21T06:18:21;11.90;71.90
19039;DHT22;9652;49.014;12.052;2023-04-21T06:20:49;12.00;71.80
19039;DHT22;9652;49.014;12.052;2023-04-21T06:23:17;12.10;71.60
19039;DHT22;9652;49.014;12.052;2023-04-21T06:25:44;12.20;71.60
19039;DHT22;9652;49.014;12.052;2023-04-21T06:28:11;12.30;71.30
19039;DHT22;9652;49.014;12.052;2023-04-21T06:30:39;12.40;71.20
19039;DHT22;9652;49.014;12.052;2023-04-21T06:33:07;12.40;71.20
19039;DHT22;9652;49.014;12.052;2023-04-21T06:35:34;12.50;71.10
19039;DHT22;9652;49.014;12.052;2023-04-21T06:38:01;12.60;70.90
19039;DHT22;9652;49.014;12.052;2023-04-21T06:40:28;12.70;70.90
19039;DHT22;9652;49.014;12.052;2023-04-21T06:42:55;12.80;70.70
19039;DHT22;9652;49.014;12.052;2023-04-21T06:45:22;12.80;70.50
19039;DHT22;9652;49.014;12.052;2023-04-21T06:47:51;12.90;70.60
19039;DHT22;9652;49.014;12.052;2023-04-21T06:50:18;13.00;71.50
19039;DHT22;9652;49.014;12.052;2023-04-21T06:52:45;13.00;70.60
19039;DHT22;9652;49.014;12.052;2023-04-21T06:55:12;13.10;70.80
19039;DHT22;9652;49.014;12.052;2023-04-21T06:57:39;13.20;70.80
19039;DHT22;9652;49.014;12.052;2023-04-21T07:00:07;13.20;70.80
19039;DHT22;9652;49.014;12.052;2023-04-21T07:02:35;13.30;70.80
19039;DHT22;9652;49.014;12.052;2023-04-21T07:05:04;13.40;70.60
19039;DHT22;9652;49.014;12.052;2023-04-21T07:07:31;13.60;70.60
19039;DHT22;9652;49.014;12.052;2023-04-21T07:09:58;13.70;70.70
19039;DHT22;9652;49.014;12.052;2023-04-21T07:12:25;13.80;70.50
19039;DHT22;9652;49.014;12.052;2023-04-21T07:14:52;13.90;70.40
19039;DHT22;9652;49.014;12.052;2023-04-21T07:17:20;13.90;70.20
19039;DHT22;9652;49.014;12.052;2023-04-21T07:19:47;14.10;70.00
19039;DHT22;9652;49.014;12.052;2023-04-21T07:22:15;14.30;70.10
19039;DHT22;9652;49.014;12.052;2023-04-21T07:24:42;14.30;69.80
19039;DHT22;9652;49.014;12.052;2023-04-21T07:27:10;14.40;69.50
19039;DHT22;9652;49.014;12.052;2023-04-21T07:29:37;14.60;69.50
19039;DHT22;9652;49.014;12.052;2023-04-21T07:32:04;14.60;69.30
19039;DHT22;9652;49.014;12.052;2023-04-21T07:34:31;14.80;69.30
19039;DHT22;9652;49.014;12.052;2023-04-21T07:36:58;14.90;68.90
19039;DHT22;9652;49.014;12.052;2023-04-21T07:39:26;15.00;68.60
19039;DHT22;9652;49.014;12.052;2023-04-21T07:41:53;15.10;68.40
19039;DHT22;9652;49.014;12.052;2023-04-21T07:44:20;15.20;68.30
19039;DHT22;9652;49.014;12.052;2023-04-21T07:46:47;15.30;68.00
19039;DHT22;9652;49.014;12.052;2023-04-21T07:49:15;15.40;67.80
19039;DHT22;9652;49.014;12.052;2023-04-21T07:51:42;15.50;67.70
19039;DHT22;9652;49.014;12.052;2023-04-21T07:54:09;15.60;67.30
19039;DHT22;9652;49.014;12.052;2023-04-21T07:56:37;15.70;67.20
19039;DHT22;9652;49.014;12.052;2023-04-21T07:59:05;15.80;66.80
19039;DHT22;9652;49.014;12.052;2023-04-21T08:01:32;15.90;66.90
19039;DHT22;9652;49.014;12.052;2023-04-21T08:03:59;16.00;66.50
19039;DHT22;9652;49.014;12.052;2023-04-21T08:06:26;16.10;66.40
19039;DHT22;9652;49.014;12.052;2023-04-21T08:08:53;16.20;66.20
19039;DHT22;9652;49.014;12.052;2023-04-21T08:11:21;16.20;66.10
19039;DHT22;9652;49.014;12.052;2023-04-21T08:13:49;16.40;65.70
19039;DHT22;9652;49.014;12.052;2023-04-21T08:16:17;16.50;65.50
19039;DHT22;9652;49.014;12.052;2023-04-21T08:18:44;16.50;65.20
19039;DHT22;9652;49.014;12.052;2023-04-21T08:21:11;16.60;65.00
19039;DHT22;9652;49.014;12.052;2023-04-21T08:23:38;16.70;64.50
19039;DHT22;9652;49.014;12.052;2023-04-21T08:26:06;16.70;64.00
19039;DHT22;9652;49.014;12.052;2023-04-21T08:28:33;16.80;63.90
19039;DHT22;9652;49.014;12.052;2023-04-21T08:31:01;16.90;63.80
19039;DHT22;9652;49.014;12.052;2023-04-21T08:33:29;17.00;63.40
19039;DHT22;9652;49.014;12.052;2023-04-21T08:35:56;17.00;63.30
19039;DHT22;9652;49.014;12.052;2023-04-21T08:38:23;17.10;63.10
19039;DHT22;9652;49.014;12.052;2023-04-21T08:40:50;17.10;62.90
19039;DHT22;9652;49.014;12.052;2023-04-21T08:43:18;17.20;63.10
19039;DHT22;9652;49.014;12.052;2023-04-21T08:45:46;17.20;62.60
19039;DHT22;9652;49.014;12.052;2023-04-21T08:48:16;17.30;62.30
19039;DHT22;9652;49.014;12.052;2023-04-21T08:50:47;17.30;61.70
19039;DHT22;9652;49.014;12.052;2023-04-21T08:53:16;17.30;62.40
19039;DHT22;9652;49.014;12.052;2023-04-21T08:55:44;17.30;61.60
19039;DHT22;9652;49.014;12.052;2023-04-21T08:58:12;17.30;61.50
19039;DHT22;9652;49.014;12.052;2023-04-21T09:00:39;17.30;61.20
19039;DHT22;9652;49.014;12.052;2023-04-21T09:03:06;17.40;61.20
19039;DHT22;9652;49.014;12.052;2023-04-21T09:05:36;17.40;61.30
19039;DHT22;9652;49.014;12.052;2023-04-21T09:08:07;17.40;61.00
19039;DHT22;9652;49.014;12.052;2023-04-21T09:10:41;17.50;60.70
19039;DHT22;9652;49.014;12.052;2023-04-21T09:13:11;17.60;60.50
19039;DHT22;9652;49.014;12.052;2023-04-21T09:15:38;17.70;60.90
19039;DHT22;9652;49.014;12.052;2023-04-21T09:18:10;17.80;60.60
19039;DHT22;9652;49.014;12.052;2023-04-21T09:20:42;17.90;60.20
19039;DHT22;9652;49.014;12.052;2023-04-21T09:23:10;18.00;60.10
19039;DHT22;9652;49.014;12.052;2023-04-21T09:25:38;18.10;59.90
19039;DHT22;9652;49.014;12.052;2023-04-21T09:28:07;18.20;59.40
19039;DHT22;9652;49.014;12.052;2023-04-21T09:30:35;18.20;59.20
19039;DHT22;9652;49.014;12.052;2023-04-21T09:33:03;18.20;59.00
19039;DHT22;9652;49.014;12.052;2023-04-21T09:35:33;18.30;58.80
19039;DHT22;9652;49.014;12.052;2023-04-21T09:38:09;18.30;58.60
19039;DHT22;9652;49.014;12.052;2023-04-21T09:40:37;18.40;58.60
19039;DHT22;9652;49.014;12.052;2023-04-21T09:43:05;18.40;58.50
19039;DHT22;9652;49.014;12.052;2023-04-21T09:45:33;18.40;58.30
19039;DHT22;9652;49.014;12.052;2023-04-21T09:48:00;18.40;58.00
19039;DHT22;9652;49.014;12.052;2023-04-21T09:50:29;18.40;58.00
19039;DHT22;9652;49.014;12.052;2023-04-21T09:52:56;18.40;58.00
19039;DHT22;9652;49.014;12.052;2023-04-21T09:55:27;18.40;58.20
19039;DHT22;9652;49.014;12.052;2023-04-21T09:57:58;18.50;58.70
19039;DHT22;9652;49.014;12.052;2023-04-21T10:00:27;18.50;58.40
19039;DHT22;9652;49.014;12.052;2023-04-21T10:02:57;18.60;58.30
19039;DHT22;9652;49.014;12.052;2023-04-21T10:05:30;18.70;58.30
19039;DHT22;9652;49.014;12.052;2023-04-21T10:07:57;18.90;58.50
19039;DHT22;9652;49.014;12.052;2023-04-21T10:10:27;18.90;58.50
19039;DHT22;9652;49.014;12.052;2023-04-21T10:12:56;19.10;58.10
19039;DHT22;9652;49.014;12.052;2023-04-21T10:15:29;19.20;58.10
19039;DHT22;9652;49.014;12.052;2023-04-21T10:18:15;19.30;57.50
19039;DHT22;9652;49.014;12.052;2023-04-21T10:20:54;19.50;56.90
19039;DHT22;9652;49.014;12.052;2023-04-21T10:23:30;19.60;57.00
19039;DHT22;9652;49.014;12.052;2023-04-21T10:26:08;19.80;56.80
19039;DHT22;9652;49.014;12.052;2023-04-21T10:28:41;19.80;56.70
19039;DHT22;9652;49.014;12.052;2023-04-21T10:31:29;19.90;56.70
19039;DHT22;9652;49.014;12.052;2023-04-21T10:34:18;20.10;56.20
19039;DHT22;9652;49.014;12.052;2023-04-21T10:37:07;20.20;55.00
19039;DHT22;9652;49.014;12.052;2023-04-21T10:39:45;20.30;55.10
19039;DHT22;9652;49.014;12.052;2023-04-21T10:42:22;20.40;55.40
19039;DHT22;9652;49.014;12.052;2023-04-21T10:45:09;20.50;55.50
19039;DHT22;9652;49.014;12.052;2023-04-21T10:47:43;20.60;55.30
19039;DHT22;9652;49.014;12.052;2023-04-21T10:50:23;20.70;55.20
19039;DHT22;9652;49.014;12.052;2023-04-21T10:52:56;20.70;54.30
19039;DHT22;9652;49.014;12.052;2023-04-21T10:55:26;20.80;54.90
19039;DHT22;9652;49.014;12.052;2023-04-21T10:57:59;20.90;55.50
19039;DHT22;9652;49.014;12.052;2023-04-21T11:00:28;21.00;54.70
19039;DHT22;9652;49.014;12.052;2023-04-21T11:02:57;21.10;54.50
19039;DHT22;9652;49.014;12.052;2023-04-21T11:05:27;21.20;54.40
19039;DHT22;9652;49.014;12.052;2023-04-21T11:08:05;21.30;54.30
19039;DHT22;9652;49.014;12.052;2023-04-21T11:10:48;21.30;54.00
19039;DHT22;9652;49.014;12.052;2023-04-21T11:13:21;21.40;53.50
19039;DHT22;9652;49.014;12.052;2023-04-21T11:16:00;21.40;53.60
19039;DHT22;9652;49.014;12.052;2023-04-21T11:18:47;21.40;52.60
19039;DHT22;9652;49.014;12.052;2023-04-21T11:21:15;21.50;52.30
19039;DHT22;9652;49.014;12.052;2023-04-21T11:23:49;21.50;53.20
19039;DHT22;9652;49.014;12.052;2023-04-21T11:26:18;21.60;52.70
19039;DHT22;9652;49.014;12.052;2023-04-21T11:28:59;21.60;53.00
19039;DHT22;9652;49.014;12.052;2023-04-21T11:31:28;21.60;52.50
19039;DHT22;9652;49.014;12.052;2023-04-21T11:33:55;21.70;52.70
19039;DHT22;9652;49.014;12.052;2023-04-21T11:36:24;21.80;52.60
19039;DHT22;9652;49.014;12.052;2023-04-21T11:38:52;21.80;52.40
19039;DHT22;9652;49.014;12.052;2023-04-21T11:41:23;21.80;52.10
19039;DHT22;9652;49.014;12.052;2023-04-21T11:43:51;21.90;51.80
19039;DHT22;9652;49.014;12.052;2023-04-21T11:46:23;21.90;51.90
19039;DHT22;9652;49.014;12.052;2023-04-21T11:48:58;21.90;51.50
19039;DHT22;9652;49.014;12.052;2023-04-21T11:51:26;21.90;51.20
19039;DHT22;9652;49.014;12.052;2023-04-21T11:53:57;22.00;51.80
19039;DHT22;9652;49.014;12.052;2023-04-21T11:56:25;22.00;51.80
19039;DHT22;9652;49.014;12.052;2023-04-21T11:58:52;22.10;51.90
19039;DHT22;9652;49.014;12.052;2023-04-21T12:01:21;22.10;51.60
19039;DHT22;9652;49.014;12.052;2023-04-21T12:03:52;22.10;51.20
19039;DHT22;9652;49.014;12.052;2023-04-21T12:06:22;22.10;51.10
19039;DHT22;9652;49.014;12.052;2023-04-21T12:08:54;22.20;51.10
19039;DHT22;9652;49.014;12.052;2023-04-21T12:11:23;22.20;50.50
19039;DHT22;9652;49.014;12.052;2023-04-21T12:13:50;22.30;50.70
19039;DHT22;9652;49.014;12.052;2023-04-21T12:16:17;22.30;50.70
19039;DHT22;9652;49.014;12.052;2023-04-21T12:18:47;22.30;50.40
19039;DHT22;9652;49.014;12.052;2023-04-21T12:21:14;22.30;50.00
19039;DHT22;9652;49.014;12.052;2023-04-21T12:23:42;22.40;50.20
19039;DHT22;9652;49.014;12.052;2023-04-21T12:26:10;22.40;50.20
19039;DHT22;9652;49.014;12.052;2023-04-21T12:28:37;22.50;50.80
19039;DHT22;9652;49.014;12.052;2023-04-21T12:31:05;22.50;50.20
19039;DHT22;9652;49.014;12.052;2023-04-21T12:33:32;22.60;50.00
19039;DHT22;9652;49.014;12.052;2023-04-21T12:36:01;22.60;49.80
19039;DHT22;9652;49.014;12.052;2023-04-21T12:38:28;22.70;49.50
19039;DHT22;9652;49.014;12.052;2023-04-21T12:40:55;22.70;49.40
19039;DHT22;9652;49.014;12.052;2023-04-21T12:43:22;22.80;49.20
19039;DHT22;9652;49.014;12.052;2023-04-21T12:45:50;22.80;49.00
19039;DHT22;9652;49.014;12.052;2023-04-21T12:48:17;22.80;48.80
19039;DHT22;9652;49.014;12.052;2023-04-21T12:50:45;22.90;48.70
19039;DHT22;9652;49.014;12.052;2023-04-21T12:53:13;22.90;48.60
19039;DHT22;9652;49.014;12.052;2023-04-21T12:55:41;22.90;48.30
19039;DHT22;9652;49.014;12.052;2023-04-21T12:58:08;23.00;48.30
19039;DHT22;9652;49.014;12.052;2023-04-21T13:00:37;23.00;48.40
19039;DHT22;9652;49.014;12.052;2023-04-21T13:03:04;22.90;48.30
19039;DHT22;9652;49.014;12.052;2023-04-21T13:05:32;22.90;48.30
19039;DHT22;9652;49.014;12.052;2023-04-21T13:07:59;22.90;48.40
19039;DHT22;9652;49.014;12.052;2023-04-21T13:10:27;22.90;48.60
19039;DHT22;9652;49.014;12.052;2023-04-21T13:12:54;23.00;48.70
19039;DHT22;9652;49.014;12.052;2023-04-21T13:15:21;23.10;48.80
19039;DHT22;9652;49.014;12.052;2023-04-21T13:17:48;23.20;48.50
19039;DHT22;9652;49.014;12.052;2023-04-21T13:20:15;23.30;48.30
19039;DHT22;9652;49.014;12.052;2023-04-21T13:22:43;23.40;48.30
19039;DHT22;9652;49.014;12.052;2023-04-21T13:25:11;23.50;48.20
19039;DHT22;9652;49.014;12.052;2023-04-21T13:27:39;23.70;47.90
19039;DHT22;9652;49.014;12.052;2023-04-21T13:30:07;23.80;47.70
19039;DHT22;9652;49.014;12.052;2023-04-21T13:32:36;23.80;47.70
19039;DHT22;9652;49.014;12.052;2023-04-21T13:35:04;24.00;48.00
19039;DHT22;9652;49.014;12.052;2023-04-21T13:37:35;24.20;48.40
19039;DHT22;9652;49.014;12.052;2023-04-21T13:40:04;24.50;48.60
19039;DHT22;9652;49.014;12.052;2023-04-21T13:42:34;24.90;49.00
19039;DHT22;9652;49.014;12.052;2023-04-21T13:45:03;25.40;49.20
19039;DHT22;9652;49.014;12.052;2023-04-21T13:47:32;25.90;48.40
19039;DHT22;9652;49.014;12.052;2023-04-21T13:50:00;26.50;48.40
19039;DHT22;9652;49.014;12.052;2023-04-21T13:52:29;27.10;48.10
19039;DHT22;9652;49.014;12.052;2023-04-21T13:54:56;27.70;47.70
19039;DHT22;9652;49.014;12.052;2023-04-21T13:57:23;28.20;46.90
19039;DHT22;9652;49.014;12.052;2023-04-21T13:59:51;28.80;45.90
19039;DHT22;9652;49.014;12.052;2023-04-21T14:02:20;29.20;44.20
19039;DHT22;9652;49.014;12.052;2023-04-21T14:04:49;29.50;42.30
19039;DHT22;9652;49.014;12.052;2023-04-21T14:07:16;29.70;41.90
19039;DHT22;9652;49.014;12.052;2023-04-21T14:09:44;29.70;41.20
19039;DHT22;9652;49.014;12.052;2023-04-21T14:12:11;29.70;41.10
19039;DHT22;9652;49.014;12.052;2023-04-21T14:14:38;29.60;40.70
19039;DHT22;9652;49.014;12.052;2023-04-21T14:17:06;29.60;40.40
19039;DHT22;9652;49.014;12.052;2023-04-21T14:19:34;29.60;39.90
19039;DHT22;9652;49.014;12.052;2023-04-21T14:22:02;29.50;39.50
19039;DHT22;9652;49.014;12.052;2023-04-21T14:24:29;29.50;39.70
19039;DHT22;9652;49.014;12.052;2023-04-21T14:26:56;29.50;39.50
19039;DHT22;9652;49.014;12.052;2023-04-21T14:29:24;29.50;39.10
19039;DHT22;9652;49.014;12.052;2023-04-21T14:31:51;29.50;38.80
19039;DHT22;9652;49.014;12.052;2023-04-21T14:34:22;29.50;38.40
19039;DHT22;9652;49.014;12.052;2023-04-21T14:36:51;29.60;38.10
19039;DHT22;9652;49.014;12.052;2023-04-21T14:39:19;29.60;37.70
19039;DHT22;9652;49.014;12.052;2023-04-21T14:41:46;29.60;37.40
19039;DHT22;9652;49.014;12.052;2023-04-21T14:44:13;29.60;37.20
19039;DHT22;9652;49.014;12.052;2023-04-21T14:46:40;29.70;37.10
19039;DHT22;9652;49.014;12.052;2023-04-21T14:49:08;29.70;37.10
19039;DHT22;9652;49.014;12.052;2023-04-21T14:51:35;29.80;37.00
19039;DHT22;9652;49.014;12.052;2023-04-21T14:54:05;29.90;37.10
19039;DHT22;9652;49.014;12.052;2023-04-21T14:56:32;30.00;36.80
19039;DHT22;9652;49.014;12.052;2023-04-21T14:58:59;30.10;36.70
19039;DHT22;9652;49.014;12.052;2023-04-21T15:01:26;30.30;36.50
19039;DHT22;9652;49.014;12.052;2023-04-21T15:03:54;30.50;36.40
19039;DHT22;9652;49.014;12.052;2023-04-21T15:06:22;30.60;36.20
19039;DHT22;9652;49.014;12.052;2023-04-21T15:08:49;30.70;35.90
19039;DHT22;9652;49.014;12.052;2023-04-21T15:11:17;30.80;35.80
19039;DHT22;9652;49.014;12.052;2023-04-21T15:13:44;30.90;35.20
19039;DHT22;9652;49.014;12.052;2023-04-21T15:16:12;31.00;35.00
19039;DHT22;9652;49.014;12.052;2023-04-21T15:18:39;31.10;34.80
19039;DHT22;9652;49.014;12.052;2023-04-21T15:21:06;31.20;34.30
19039;DHT22;9652;49.014;12.052;2023-04-21T15:23:34;31.30;33.90
19039;DHT22;9652;49.014;12.052;2023-04-21T15:26:01;31.30;33.70
19039;DHT22;9652;49.014;12.052;2023-04-21T15:28:30;31.40;33.40
19039;DHT22;9652;49.014;12.052;2023-04-21T15:30:57;31.40;32.90
19039;DHT22;9652;49.014;12.052;2023-04-21T15:33:24;31.40;33.10
19039;DHT22;9652;49.014;12.052;2023-04-21T15:35:51;31.50;33.00
19039;DHT22;9652;49.014;12.052;2023-04-21T15:38:18;31.50;32.70
19039;DHT22;9652;49.014;12.052;2023-04-21T15:40:46;31.50;32.60